sensor_id;sensor_type;location;lat;lon;timestamp;pressure;altitude;pressure_sealevel;temperature;humidity
49397;BME280;35615;41.410;2.194;2022-12-10T00:00:13;99852.28;;;19.36;51.32
49397;BME280;35615;41.410;2.194;2022-12-10T00:02:44;99846.16;;;19.35;51.22
49397;BME280;35615;41.410;2.194;2022-12-10T00:05:11;99847.97;;;19.32;51.21
49397;BME280;35615;41.410;2.194;2022-12-10T00:07:45;99853.25;;;19.27;51.28
49397;BME280;35615;41.410;2.194;2022-12-10T00:10:15;99852.41;;;19.25;51.42
49397;BME280;35615;41.410;2.194;2022-12-10T00:12:46;99854.09;;;19.31;51.22
49397;BME280;35615;41.410;2.194;2022-12-10T00:15:14;99856.91;;;19.12;51.94
49397;BME280;35615;41.410;2.194;2022-12-10T00:17:42;99849.88;;;19.16;51.99
49397;BME280;35615;41.410;2.194;2022-12-10T00:20:12;99851.72;;;19.09;51.96
49397;BME280;35615;41.410;2.194;2022-12-10T00:22:41;99854.31;;;19.11;52.43
49397;BME280;35615;41.410;2.194;2022-12-10T00:25:08;99851.59;;;19.17;52.67
49397;BME280;35615;41.410;2.194;2022-12-10T00:27:35;99849.88;;;19.16;52.84
49397;BME280;35615;41.410;2.194;2022-12-10T00:30:04;99854.25;;;19.15;53.37
49397;BME280;35615;41.410;2.194;2022-12-10T00:32:33;99855.16;;;19.13;53.10
49397;BME280;35615;41.410;2.194;2022-12-10T00:35:04;99858.66;;;19.12;53.32
49397;BME280;35615;41.410;2.194;2022-12-10T00:37:32;99859.53;;;19.11;53.29
49397;BME280;35615;41.410;2.194;2022-12-10T00:40:00;99849.84;;;19.17;53.55
49397;BME280;35615;41.410;2.194;2022-12-10T00:42:32;99850.78;;;19.13;53.90
49397;BME280;35615;41.410;2.194;2022-12-10T00:45:00;99848.22;;;19.09;53.63
49397;BME280;35615;41.410;2.194;2022-12-10T00:47:28;99849.06;;;19.11;53.68
49397;BME280;35615;41.410;2.194;2022-12-10T00:49:56;99849.03;;;19.14;54.07
49397;BME280;35615;41.410;2.194;2022-12-10T00:52:24;99844.72;;;19.11;54.00
49397;BME280;35615;41.410;2.194;2022-12-10T00:54:56;99852.56;;;19.11;54.29
49397;BME280;35615;41.410;2.194;2022-12-10T00:57:27;99845.63;;;19.09;53.91
49397;BME280;35615;41.410;2.194;2022-12-10T00:59:55;99849.97;;;19.08;54.08
49397;BME280;35615;41.410;2.194;2022-12-10T01:02:30;99849.16;;;19.02;54.30
49397;BME280;35615;41.410;2.194;2022-12-10T01:05:01;99849.09;;;19.06;53.95
49397;BME280;35615;41.410;2.194;2022-12-10T01:07:32;99851.78;;;19.02;54.64
49397;BME280;35615;41.410;2.194;2022-12-10T01:10:01;99843.94;;;19.02;54.72
49397;BME280;35615;41.410;2.194;2022-12-10T01:12:30;99850.88;;;19.04;54.69
49397;BME280;35615;41.410;2.194;2022-12-10T01:14:58;99850.00;;;19.04;54.81
49397;BME280;35615;41.410;2.194;2022-12-10T01:17:28;99850.00;;;19.04;54.42
49397;BME280;35615;41.410;2.194;2022-12-10T01:19:56;99850.91;;;19.01;54.32
49397;BME280;35615;41.410;2.194;2022-12-10T01:22:27;99859.66;;;19.00;54.38
49397;BME280;35615;41.410;2.194;2022-12-10T01:24:56;99849.22;;;18.99;54.03
49397;BME280;35615;41.410;2.194;2022-12-10T01:27:24;99860.56;;;18.95;54.11
49397;BME280;35615;41.410;2.194;2022-12-10T01:29:54;99861.44;;;18.98;53.65
49397;BME280;35615;41.410;2.194;2022-12-10T01:32:22;99858.91;;;18.88;53.69
49397;BME280;35615;41.410;2.194;2022-12-10T01:34:51;99864.16;;;18.88;53.99
49397;BME280;35615;41.410;2.194;2022-12-10T01:37:27;99869.41;;;18.86;54.05
49397;BME280;35615;41.410;2.194;2022-12-10T01:39:54;99873.75;;;18.89;54.15
49397;BME280;35615;41.410;2.194;2022-12-10T01:42:23;99874.59;;;18.89;54.16
49397;BME280;35615;41.410;2.194;2022-12-10T01:45:02;99878.97;;;18.90;54.10
49397;BME280;35615;41.410;2.194;2022-12-10T01:47:32;99882.41;;;18.94;54.16
49397;BME280;35615;41.410;2.194;2022-12-10T01:49:59;99884.16;;;18.93;54.25
49397;BME280;35615;41.410;2.194;2022-12-10T01:52:28;99889.38;;;18.96;54.26
49397;BME280;35615;41.410;2.194;2022-12-10T01:54:58;99889.47;;;18.85;54.55
49397;BME280;35615;41.410;2.194;2022-12-10T01:57:26;99886.06;;;18.76;54.15
49397;BME280;35615;41.410;2.194;2022-12-10T01:59:58;99896.56;;;18.71;54.52
49397;BME280;35615;41.410;2.194;2022-12-10T02:02:29;99896.59;;;18.68;54.32
49397;BME280;35615;41.410;2.194;2022-12-10T02:05:04;99898.34;;;18.69;54.24
49397;BME280;35615;41.410;2.194;2022-12-10T02:15:38;99902.66;;;18.75;54.41
49397;BME280;35615;41.410;2.194;2022-12-10T02:18:09;99913.13;;;18.73;54.36
49397;BME280;35615;41.410;2.194;2022-12-10T02:20:44;99902.63;;;18.78;54.16
49397;BME280;35615;41.410;2.194;2022-12-10T02:23:13;99901.75;;;18.77;54.29
49397;BME280;35615;41.410;2.194;2022-12-10T02:25:56;99909.66;;;18.74;54.20
49397;BME280;35615;41.410;2.194;2022-12-10T02:28:35;99906.16;;;18.74;54.09
49397;BME280;35615;41.410;2.194;2022-12-10T02:31:06;99912.25;;;18.76;53.86
49397;BME280;35615;41.410;2.194;2022-12-10T02:33:37;99913.94;;;18.80;53.67
49397;BME280;35615;41.410;2.194;2022-12-10T02:36:05;99911.34;;;18.77;53.68
49397;BME280;35615;41.410;2.194;2022-12-10T02:38:34;99921.84;;;18.75;53.80
49397;BME280;35615;41.410;2.194;2022-12-10T02:41:08;99914.88;;;18.74;53.66
49397;BME280;35615;41.410;2.194;2022-12-10T02:43:36;99917.50;;;18.74;53.69
49397;BME280;35615;41.410;2.194;2022-12-10T02:46:03;99923.56;;;18.76;53.51
49397;BME280;35615;41.410;2.194;2022-12-10T02:48:31;99925.31;;;18.76;53.63
49397;BME280;35615;41.410;2.194;2022-12-10T02:51:00;99921.81;;;18.77;53.61
49397;BME280;35615;41.410;2.194;2022-12-10T02:53:27;99923.59;;;18.72;53.45
49397;BME280;35615;41.410;2.194;2022-12-10T02:58:40;99931.53;;;18.64;53.47
49397;BME280;35615;41.410;2.194;2022-12-10T03:01:21;99928.00;;;18.64;53.47
49397;BME280;35615;41.410;2.194;2022-12-10T03:03:56;99930.63;;;18.61;53.47
49397;BME280;35615;41.410;2.194;2022-12-10T03:06:30;99929.75;;;18.60;53.63
49397;BME280;35615;41.410;2.194;2022-12-10T03:09:05;99926.34;;;18.52;53.47
49397;BME280;35615;41.410;2.194;2022-12-10T03:11:34;99930.69;;;18.54;53.76
49397;BME280;35615;41.410;2.194;2022-12-10T03:14:03;99931.56;;;18.55;54.07
49397;BME280;35615;41.410;2.194;2022-12-10T03:16:38;99933.22;;;18.62;54.00
49397;BME280;35615;41.410;2.194;2022-12-10T03:19:10;99935.88;;;18.61;54.20
49397;BME280;35615;41.410;2.194;2022-12-10T03:21:41;99934.16;;;18.56;54.80
49397;BME280;35615;41.410;2.194;2022-12-10T03:24:12;99931.63;;;18.44;54.08
49397;BME280;35615;41.410;2.194;2022-12-10T03:26:43;99927.31;;;18.40;54.34
49397;BME280;35615;41.410;2.194;2022-12-10T03:29:15;99929.84;;;18.48;54.31
49397;BME280;35615;41.410;2.194;2022-12-10T03:31:47;99927.22;;;18.51;54.48
49397;BME280;35615;41.410;2.194;2022-12-10T03:34:15;99921.16;;;18.46;54.44
49397;BME280;35615;41.410;2.194;2022-12-10T03:36:42;99916.75;;;18.51;54.74
49397;BME280;35615;41.410;2.194;2022-12-10T03:39:13;99924.59;;;18.51;55.10
49397;BME280;35615;41.410;2.194;2022-12-10T03:41:41;99921.97;;;18.51;54.99
49397;BME280;35615;41.410;2.194;2022-12-10T03:44:08;99918.53;;;18.47;54.21
49397;BME280;35615;41.410;2.194;2022-12-10T03:46:36;99926.34;;;18.49;54.72
49397;BME280;35615;41.410;2.194;2022-12-10T03:49:06;99925.53;;;18.44;54.68
49397;BME280;35615;41.410;2.194;2022-12-10T03:51:33;99929.06;;;18.37;54.61
49397;BME280;35615;41.410;2.194;2022-12-10T03:54:04;99927.25;;;18.46;54.85
49397;BME280;35615;41.410;2.194;2022-12-10T03:56:34;99936.88;;;18.44;54.55
49397;BME280;35615;41.410;2.194;2022-12-10T03:59:02;99949.06;;;18.44;54.59
49397;BME280;35615;41.410;2.194;2022-12-10T04:01:29;99939.50;;;18.43;54.50
49397;BME280;35615;41.410;2.194;2022-12-10T04:03:56;99949.97;;;18.40;54.43
49397;BME280;35615;41.410;2.194;2022-12-10T04:06:26;99950.84;;;18.40;54.52
49397;BME280;35615;41.410;2.194;2022-12-10T04:08:57;99951.69;;;18.39;54.58
49397;BME280;35615;41.410;2.194;2022-12-10T04:11:24;99958.66;;;18.43;54.51
49397;BME280;35615;41.410;2.194;2022-12-10T04:13:52;99956.06;;;18.39;54.86
49397;BME280;35615;41.410;2.194;2022-12-10T04:16:38;99962.19;;;18.38;54.60
49397;BME280;35615;41.410;2.194;2022-12-10T04:19:12;99970.03;;;18.38;54.96
49397;BME280;35615;41.410;2.194;2022-12-10T04:21:41;99964.78;;;18.41;55.06
49397;BME280;35615;41.410;2.194;2022-12-10T04:24:28;99977.81;;;18.45;55.43
49397;BME280;35615;41.410;2.194;2022-12-10T04:29:40;99988.34;;;18.36;55.87
49397;BME280;35615;41.410;2.194;2022-12-10T04:32:08;99991.00;;;18.28;56.00
49397;BME280;35615;41.410;2.194;2022-12-10T04:34:38;99996.22;;;18.28;55.86
49397;BME280;35615;41.410;2.194;2022-12-10T04:37:08;99998.00;;;18.22;55.86
49397;BME280;35615;41.410;2.194;2022-12-10T04:39:38;100003.31;;;18.10;55.50
49397;BME280;35615;41.410;2.194;2022-12-10T04:42:06;100000.66;;;18.16;55.41
49397;BME280;35615;41.410;2.194;2022-12-10T04:44:34;100002.41;;;18.18;55.79
49397;BME280;35615;41.410;2.194;2022-12-10T04:47:05;99997.16;;;18.20;56.23
49397;BME280;35615;41.410;2.194;2022-12-10T04:49:33;100001.47;;;18.24;56.71
49397;BME280;35615;41.410;2.194;2022-12-10T04:52:00;100005.88;;;18.17;57.44
49397;BME280;35615;41.410;2.194;2022-12-10T04:54:28;100011.09;;;18.19;57.38
49397;BME280;35615;41.410;2.194;2022-12-10T04:57:02;100005.84;;;18.23;57.19
49397;BME280;35615;41.410;2.194;2022-12-10T04:59:29;100009.34;;;18.21;57.73
49397;BME280;35615;41.410;2.194;2022-12-10T05:01:57;100010.22;;;18.21;57.86
49397;BME280;35615;41.410;2.194;2022-12-10T05:04:25;100009.31;;;18.24;58.06
49397;BME280;35615;41.410;2.194;2022-12-10T05:06:52;100017.16;;;18.27;58.05
49397;BME280;35615;41.410;2.194;2022-12-10T05:09:19;100014.56;;;18.24;58.09
49397;BME280;35615;41.410;2.194;2022-12-10T05:11:47;100013.69;;;18.25;58.24
49397;BME280;35615;41.410;2.194;2022-12-10T05:14:17;100015.44;;;18.24;58.08
49397;BME280;35615;41.410;2.194;2022-12-10T05:16:44;100019.78;;;18.25;58.29
49397;BME280;35615;41.410;2.194;2022-12-10T05:19:12;100020.69;;;18.18;57.68
49397;BME280;35615;41.410;2.194;2022-12-10T05:21:39;100014.59;;;18.15;58.00
49397;BME280;35615;41.410;2.194;2022-12-10T05:24:25;100024.19;;;18.19;58.21
49397;BME280;35615;41.410;2.194;2022-12-10T05:26:52;100026.81;;;18.13;58.78
49397;BME280;35615;41.410;2.194;2022-12-10T05:29:19;100031.16;;;18.14;58.73
49397;BME280;35615;41.410;2.194;2022-12-10T05:31:47;100030.31;;;18.09;57.98
49397;BME280;35615;41.410;2.194;2022-12-10T05:34:19;100025.97;;;18.09;58.21
49397;BME280;35615;41.410;2.194;2022-12-10T05:36:49;100026.81;;;18.10;58.55
49397;BME280;35615;41.410;2.194;2022-12-10T05:39:17;100040.78;;;18.07;58.23
49397;BME280;35615;41.410;2.194;2022-12-10T05:41:47;100044.28;;;18.03;57.91
49397;BME280;35615;41.410;2.194;2022-12-10T05:44:20;100048.63;;;18.03;58.16
49397;BME280;35615;41.410;2.194;2022-12-10T05:46:51;100058.22;;;18.02;57.70
49397;BME280;35615;41.410;2.194;2022-12-10T05:49:18;100052.97;;;18.08;57.80
49397;BME280;35615;41.410;2.194;2022-12-10T05:51:46;100054.75;;;17.94;57.59
49397;BME280;35615;41.410;2.194;2022-12-10T05:54:19;100053.03;;;17.96;57.68
49397;BME280;35615;41.410;2.194;2022-12-10T05:56:48;100056.44;;;18.06;58.32
49397;BME280;35615;41.410;2.194;2022-12-10T05:59:18;100052.09;;;18.09;58.16
49397;BME280;35615;41.410;2.194;2022-12-10T06:01:49;100056.44;;;18.10;58.33
49397;BME280;35615;41.410;2.194;2022-12-10T06:04:19;100059.94;;;18.12;58.63
49397;BME280;35615;41.410;2.194;2022-12-10T06:06:47;100069.50;;;18.13;58.66
49397;BME280;35615;41.410;2.194;2022-12-10T06:09:16;100075.63;;;18.11;57.40
49397;BME280;35615;41.410;2.194;2022-12-10T06:11:44;100072.13;;;18.13;56.96
49397;BME280;35615;41.410;2.194;2022-12-10T06:14:11;100072.09;;;18.18;57.38
49397;BME280;35615;41.410;2.194;2022-12-10T06:16:39;100081.69;;;18.19;57.52
49397;BME280;35615;41.410;2.194;2022-12-10T06:19:07;100077.31;;;18.21;58.03
49397;BME280;35615;41.410;2.194;2022-12-10T06:21:34;100093.88;;;18.24;58.06
49397;BME280;35615;41.410;2.194;2022-12-10T06:24:02;100096.50;;;18.23;58.12
49397;BME280;35615;41.410;2.194;2022-12-10T06:26:29;100096.50;;;18.21;58.63
49397;BME280;35615;41.410;2.194;2022-12-10T06:28:57;100093.91;;;18.18;58.39
49397;BME280;35615;41.410;2.194;2022-12-10T06:31:24;100100.03;;;18.08;57.18
49397;BME280;35615;41.410;2.194;2022-12-10T06:33:51;100101.72;;;18.15;56.97
49397;BME280;35615;41.410;2.194;2022-12-10T06:36:19;100108.72;;;18.04;56.78
49397;BME280;35615;41.410;2.194;2022-12-10T06:38:47;100111.31;;;18.15;57.00
49397;BME280;35615;41.410;2.194;2022-12-10T06:41:16;100116.56;;;18.12;55.92
49397;BME280;35615;41.410;2.194;2022-12-10T06:43:43;100107.00;;;18.05;55.68
49397;BME280;35615;41.410;2.194;2022-12-10T06:46:11;100119.19;;;18.03;55.65
49397;BME280;35615;41.410;2.194;2022-12-10T06:48:39;100119.22;;;17.99;55.69
49397;BME280;35615;41.410;2.194;2022-12-10T06:51:07;100118.28;;;18.20;55.22
49397;BME280;35615;41.410;2.194;2022-12-10T06:53:36;100121.81;;;17.95;55.72
49397;BME280;35615;41.410;2.194;2022-12-10T06:56:04;100122.72;;;17.91;55.69
49397;BME280;35615;41.410;2.194;2022-12-10T06:58:35;100120.97;;;17.87;55.89
49397;BME280;35615;41.410;2.194;2022-12-10T07:01:03;100133.16;;;17.82;55.84
49397;BME280;35615;41.410;2.194;2022-12-10T07:03:31;100131.41;;;17.84;55.87
49397;BME280;35615;41.410;2.194;2022-12-10T07:05:59;100136.66;;;17.97;55.60
49397;BME280;35615;41.410;2.194;2022-12-10T07:08:27;100132.28;;;17.95;55.38
49397;BME280;35615;41.410;2.194;2022-12-10T07:10:54;100139.25;;;18.02;55.39
49397;BME280;35615;41.410;2.194;2022-12-10T07:13:22;100131.41;;;18.08;55.20
49397;BME280;35615;41.410;2.194;2022-12-10T07:15:56;100129.63;;;18.21;55.41
49397;BME280;35615;41.410;2.194;2022-12-10T07:18:26;100126.97;;;18.25;54.93
49397;BME280;35615;41.410;2.194;2022-12-10T07:20:55;100139.22;;;18.07;55.05
49397;BME280;35615;41.410;2.194;2022-12-10T07:23:22;100134.00;;;18.13;55.24
49397;BME280;35615;41.410;2.194;2022-12-10T07:25:50;100143.56;;;18.12;54.99
49397;BME280;35615;41.410;2.194;2022-12-10T07:28:17;100151.41;;;18.18;55.31
49397;BME280;35615;41.410;2.194;2022-12-10T07:30:45;100146.22;;;17.73;55.82
49397;BME280;35615;41.410;2.194;2022-12-10T07:33:15;100147.97;;;18.01;54.83
49397;BME280;35615;41.410;2.194;2022-12-10T07:35:43;100154.06;;;18.00;54.91
49397;BME280;35615;41.410;2.194;2022-12-10T07:38:15;100154.94;;;17.97;54.33
49397;BME280;35615;41.410;2.194;2022-12-10T07:40:43;100158.41;;;18.10;54.09
49397;BME280;35615;41.410;2.194;2022-12-10T07:43:13;100161.91;;;18.08;53.65
49397;BME280;35615;41.410;2.194;2022-12-10T07:45:51;100163.59;;;18.24;53.95
49397;BME280;35615;41.410;2.194;2022-12-10T07:48:20;100159.22;;;18.32;53.95
49397;BME280;35615;41.410;2.194;2022-12-10T07:50:55;100165.28;;;18.36;54.11
49397;BME280;35615;41.410;2.194;2022-12-10T07:53:24;100170.50;;;18.46;54.24
49397;BME280;35615;41.410;2.194;2022-12-10T07:55:53;100176.59;;;18.48;54.73
49397;BME280;35615;41.410;2.194;2022-12-10T07:58:21;100187.91;;;18.50;55.17
49397;BME280;35615;41.410;2.194;2022-12-10T08:00:48;100191.47;;;18.40;55.55
49397;BME280;35615;41.410;2.194;2022-12-10T08:03:15;100191.44;;;18.37;54.95
49397;BME280;35615;41.410;2.194;2022-12-10T08:05:43;100196.72;;;18.16;53.75
49397;BME280;35615;41.410;2.194;2022-12-10T08:08:11;100200.19;;;18.22;53.18
49397;BME280;35615;41.410;2.194;2022-12-10T08:10:41;100203.69;;;18.29;52.39
49397;BME280;35615;41.410;2.194;2022-12-10T08:13:08;100209.81;;;17.88;53.43
49397;BME280;35615;41.410;2.194;2022-12-10T08:15:36;100209.81;;;18.02;53.09
49397;BME280;35615;41.410;2.194;2022-12-10T08:18:07;100214.19;;;17.76;53.73
49397;BME280;35615;41.410;2.194;2022-12-10T08:20:34;100219.41;;;17.76;54.14
49397;BME280;35615;41.410;2.194;2022-12-10T08:23:08;100225.44;;;17.61;54.37
49397;BME280;35615;41.410;2.194;2022-12-10T08:25:36;100224.63;;;17.82;53.91
49397;BME280;35615;41.410;2.194;2022-12-10T08:28:06;100232.47;;;17.89;53.41
49397;BME280;35615;41.410;2.194;2022-12-10T08:30:38;100239.44;;;17.93;53.41
49397;BME280;35615;41.410;2.194;2022-12-10T08:33:09;100243.78;;;17.71;53.54
49397;BME280;35615;41.410;2.194;2022-12-10T08:35:41;100245.53;;;17.97;52.91
49397;BME280;35615;41.410;2.194;2022-12-10T08:38:19;100244.66;;;17.90;53.00
49397;BME280;35615;41.410;2.194;2022-12-10T08:40:47;100241.16;;;18.14;52.83
49397;BME280;35615;41.410;2.194;2022-12-10T08:43:14;100245.53;;;17.83;53.39
49397;BME280;35615;41.410;2.194;2022-12-10T08:45:42;100254.22;;;18.05;52.47
49397;BME280;35615;41.410;2.194;2022-12-10T08:48:10;100255.97;;;17.82;53.06
49397;BME280;35615;41.410;2.194;2022-12-10T08:50:38;100256.84;;;17.82;53.02
49397;BME280;35615;41.410;2.194;2022-12-10T08:53:08;100260.31;;;17.70;53.39
49397;BME280;35615;41.410;2.194;2022-12-10T08:55:39;100263.81;;;18.02;52.87
49397;BME280;35615;41.410;2.194;2022-12-10T08:58:18;100273.38;;;18.36;52.36
49397;BME280;35615;41.410;2.194;2022-12-10T09:00:47;100269.00;;;18.40;52.16
49397;BME280;35615;41.410;2.194;2022-12-10T09:03:14;100257.69;;;18.47;52.44
49397;BME280;35615;41.410;2.194;2022-12-10T09:05:42;100269.00;;;18.56;51.93
49397;BME280;35615;41.410;2.194;2022-12-10T09:08:12;100277.72;;;18.69;52.09
49397;BME280;35615;41.410;2.194;2022-12-10T09:10:39;100268.94;;;18.82;51.80
49397;BME280;35615;41.410;2.194;2022-12-10T09:13:13;100289.06;;;18.68;51.46
49397;BME280;35615;41.410;2.194;2022-12-10T09:15:42;100293.44;;;18.54;51.24
49397;BME280;35615;41.410;2.194;2022-12-10T09:18:15;100292.53;;;18.61;51.09
49397;BME280;35615;41.410;2.194;2022-12-10T09:20:43;100289.06;;;18.74;51.14
49397;BME280;35615;41.410;2.194;2022-12-10T09:23:10;100296.00;;;18.62;50.84
49397;BME280;35615;41.410;2.194;2022-12-10T09:25:40;100290.84;;;18.23;51.55
49397;BME280;35615;41.410;2.194;2022-12-10T09:28:09;100303.06;;;18.29;51.44
49397;BME280;35615;41.410;2.194;2022-12-10T09:30:40;100310.00;;;18.54;51.43
49397;BME280;35615;41.410;2.194;2022-12-10T09:33:08;100317.84;;;18.50;50.96
49397;BME280;35615;41.410;2.194;2022-12-10T09:35:38;100321.31;;;18.61;50.71
49397;BME280;35615;41.410;2.194;2022-12-10T09:38:06;100321.34;;;18.37;51.48
49397;BME280;35615;41.410;2.194;2022-12-10T09:43:26;100324.81;;;18.17;51.64
49397;BME280;35615;41.410;2.194;2022-12-10T09:53:29;100323.06;;;18.39;50.23
49397;BME280;35615;41.410;2.194;2022-12-10T09:55:58;100330.06;;;18.45;49.32
49397;BME280;35615;41.410;2.194;2022-12-10T09:58:26;100324.78;;;18.81;49.26
49397;BME280;35615;41.410;2.194;2022-12-10T10:01:00;100340.50;;;18.72;48.50
49397;BME280;35615;41.410;2.194;2022-12-10T10:03:40;100332.69;;;18.42;48.74
49397;BME280;35615;41.410;2.194;2022-12-10T10:06:14;100329.19;;;18.46;48.85
49397;BME280;35615;41.410;2.194;2022-12-10T10:08:51;100330.94;;;18.44;48.79
49397;BME280;35615;41.410;2.194;2022-12-10T10:11:25;100327.44;;;18.16;48.92
49397;BME280;35615;41.410;2.194;2022-12-10T10:17:03;100338.75;;;18.56;47.95
49397;BME280;35615;41.410;2.194;2022-12-10T10:19:35;100335.25;;;18.62;47.69
49397;BME280;35615;41.410;2.194;2022-12-10T10:22:04;100338.78;;;18.74;47.55
49397;BME280;35615;41.410;2.194;2022-12-10T10:24:36;100333.50;;;18.88;47.17
49397;BME280;35615;41.410;2.194;2022-12-10T10:27:14;100333.47;;;18.94;46.42
49397;BME280;35615;41.410;2.194;2022-12-10T10:29:46;100337.78;;;19.13;46.00
49397;BME280;35615;41.410;2.194;2022-12-10T10:34:54;100341.75;;;20.01;43.84
49397;BME280;35615;41.410;2.194;2022-12-10T10:37:27;100341.28;;;20.61;42.59
49397;BME280;35615;41.410;2.194;2022-12-10T10:39:58;100339.22;;;20.95;40.52
49397;BME280;35615;41.410;2.194;2022-12-10T10:42:27;100337.41;;;21.69;39.54
49397;BME280;35615;41.410;2.194;2022-12-10T10:44:55;100336.22;;;22.47;38.28
49397;BME280;35615;41.410;2.194;2022-12-10T10:47:24;100335.13;;;22.62;36.91
49397;BME280;35615;41.410;2.194;2022-12-10T10:50:00;100331.41;;;23.20;35.89
49397;BME280;35615;41.410;2.194;2022-12-10T10:52:28;100320.06;;;23.58;34.76
49397;BME280;35615;41.410;2.194;2022-12-10T10:54:56;100325.38;;;23.95;33.93
49397;BME280;35615;41.410;2.194;2022-12-10T10:57:29;100328.19;;;23.46;34.03
49397;BME280;35615;41.410;2.194;2022-12-10T11:00:10;100319.91;;;24.03;33.48
49397;BME280;35615;41.410;2.194;2022-12-10T11:02:44;100314.31;;;24.85;32.09
49397;BME280;35615;41.410;2.194;2022-12-10T11:05:25;100314.03;;;24.94;31.68
49397;BME280;35615;41.410;2.194;2022-12-10T11:08:02;100307.25;;;25.18;30.89
49397;BME280;35615;41.410;2.194;2022-12-10T11:10:30;100311.44;;;26.11;29.98
49397;BME280;35615;41.410;2.194;2022-12-10T11:13:15;100305.81;;;26.21;29.64
49397;BME280;35615;41.410;2.194;2022-12-10T11:15:45;100310.69;;;26.60;28.64
49397;BME280;35615;41.410;2.194;2022-12-10T11:18:26;100299.66;;;25.94;29.26
49397;BME280;35615;41.410;2.194;2022-12-10T11:20:56;100309.50;;;26.16;28.49
49397;BME280;35615;41.410;2.194;2022-12-10T11:23:26;100313.31;;;25.51;29.23
49397;BME280;35615;41.410;2.194;2022-12-10T11:41:42;100306.69;;;28.12;25.95
49397;BME280;35615;41.410;2.194;2022-12-10T11:44:16;100319.88;;;27.00;26.44
49397;BME280;35615;41.410;2.194;2022-12-10T11:47:14;100312.19;;;26.42;26.81
49397;BME280;35615;41.410;2.194;2022-12-10T11:52:34;100314.53;;;26.76;27.29
49397;BME280;35615;41.410;2.194;2022-12-10T11:55:18;100304.06;;;26.73;27.61
49397;BME280;35615;41.410;2.194;2022-12-10T11:58:11;100304.72;;;27.28;26.25
49397;BME280;35615;41.410;2.194;2022-12-10T12:14:13;100299.03;;;27.61;25.12
49397;BME280;35615;41.410;2.194;2022-12-10T12:16:44;100280.78;;;27.97;24.69
49397;BME280;35615;41.410;2.194;2022-12-10T12:19:14;100292.31;;;27.29;25.56
49397;BME280;35615;41.410;2.194;2022-12-10T12:21:44;100291.78;;;25.91;26.65
49397;BME280;35615;41.410;2.194;2022-12-10T12:24:18;100292.78;;;26.91;25.80
49397;BME280;35615;41.410;2.194;2022-12-10T12:29:34;100297.34;;;25.84;26.47
49397;BME280;35615;41.410;2.194;2022-12-10T12:32:05;100301.22;;;24.80;27.18
49397;BME280;35615;41.410;2.194;2022-12-10T12:37:52;100291.88;;;26.16;26.25
49397;BME280;35615;41.410;2.194;2022-12-10T12:40:28;100295.00;;;26.01;25.43
49397;BME280;35615;41.410;2.194;2022-12-10T12:42:58;100294.84;;;26.32;25.46
49397;BME280;35615;41.410;2.194;2022-12-10T12:45:38;100297.47;;;26.07;25.51
49397;BME280;35615;41.410;2.194;2022-12-10T12:50:46;100299.78;;;25.32;26.43
49397;BME280;35615;41.410;2.194;2022-12-10T12:53:20;100297.25;;;25.57;26.53
49397;BME280;35615;41.410;2.194;2022-12-10T12:56:05;100293.84;;;23.09;29.00
49397;BME280;35615;41.410;2.194;2022-12-10T13:01:34;100298.63;;;23.72;28.80
49397;BME280;35615;41.410;2.194;2022-12-10T13:04:03;100296.34;;;23.95;28.65
49397;BME280;35615;41.410;2.194;2022-12-10T13:06:35;100297.91;;;24.02;28.58
49397;BME280;35615;41.410;2.194;2022-12-10T13:11:44;100301.88;;;24.56;27.52
49397;BME280;35615;41.410;2.194;2022-12-10T13:19:42;100290.22;;;25.86;26.40
49397;BME280;35615;41.410;2.194;2022-12-10T13:22:10;100287.13;;;25.42;26.49
49397;BME280;35615;41.410;2.194;2022-12-10T13:24:44;100301.25;;;25.70;26.21
49397;BME280;35615;41.410;2.194;2022-12-10T13:27:15;100298.50;;;25.75;26.01
49397;BME280;35615;41.410;2.194;2022-12-10T13:30:25;100296.78;;;26.00;25.95
49397;BME280;35615;41.410;2.194;2022-12-10T13:32:51;100308.09;;;25.48;26.18
49397;BME280;35615;41.410;2.194;2022-12-10T13:35:26;100307.72;;;25.60;25.71
49397;BME280;35615;41.410;2.194;2022-12-10T13:38:04;100300.09;;;25.51;25.77
49397;BME280;35615;41.410;2.194;2022-12-10T13:48:48;100318.19;;;25.93;25.42
49397;BME280;35615;41.410;2.194;2022-12-10T13:51:26;100325.69;;;25.19;25.44
49397;BME280;35615;41.410;2.194;2022-12-10T13:54:10;100329.34;;;26.02;25.02
49397;BME280;35615;41.410;2.194;2022-12-10T13:56:57;100318.84;;;25.12;25.17
49397;BME280;35615;41.410;2.194;2022-12-10T13:59:36;100324.44;;;25.02;25.12
49397;BME280;35615;41.410;2.194;2022-12-10T14:07:34;100317.09;;;25.42;24.37
49397;BME280;35615;41.410;2.194;2022-12-10T14:10:02;100331.56;;;25.59;24.20
49397;BME280;35615;41.410;2.194;2022-12-10T14:12:31;100343.75;;;25.04;24.76
49397;BME280;35615;41.410;2.194;2022-12-10T14:15:00;100350.22;;;24.22;25.41
49397;BME280;35615;41.410;2.194;2022-12-10T14:17:34;100347.84;;;24.81;25.09
49397;BME280;35615;41.410;2.194;2022-12-10T14:20:05;100355.75;;;24.50;25.00
49397;BME280;35615;41.410;2.194;2022-12-10T14:22:46;100350.44;;;24.84;24.31
49397;BME280;35615;41.410;2.194;2022-12-10T14:25:16;100371.38;;;23.84;24.38
49397;BME280;35615;41.410;2.194;2022-12-10T14:27:47;100358.44;;;23.71;24.29
49397;BME280;35615;41.410;2.194;2022-12-10T14:30:19;100361.88;;;24.14;24.10
49397;BME280;35615;41.410;2.194;2022-12-10T14:32:47;100367.88;;;23.82;24.13
49397;BME280;35615;41.410;2.194;2022-12-10T14:35:18;100374.03;;;23.39;24.24
49397;BME280;35615;41.410;2.194;2022-12-10T14:37:51;100386.75;;;23.20;24.03
49397;BME280;35615;41.410;2.194;2022-12-10T14:40:23;100386.72;;;22.71;23.80
49397;BME280;35615;41.410;2.194;2022-12-10T14:42:55;100376.69;;;22.93;23.59
49397;BME280;35615;41.410;2.194;2022-12-10T14:45:31;100382.19;;;22.79;23.89